Time;durP1;ratioP1;P1;durP2;ratioP2;P2;SDS_P1;SDS_P2;PMS_P1;PMS_P2;Temp;Humidity;BMP_temperature;BMP_pressure;BME280_temperature;BME280_humidity;BME280_pressure;Samples;Min_cycle;Max_cycle;Signal;HPM_P1;HPM_P2
2021/11/03 00:02:10;;;;;;;5.77;5.13;;;9.10;99.90;;;;;;5103769;28;20576;-68
2021/11/03 00:04:38;;;;;;;6.60;5.90;;;9.10;99.90;;;;;;5100488;28;20449;-67
2021/11/03 00:07:05;;;;;;;6.67;5.97;;;9.10;99.90;;;;;;5097655;28;20932;-68
2021/11/03 00:09:33;;;;;;;7.80;5.63;;;9.10;99.90;;;;;;5098015;28;20453;-67
2021/11/03 00:12:01;;;;;;;10.00;5.73;;;9.10;99.90;;;;;;5098007;28;20775;-68
2021/11/03 00:14:28;;;;;;;6.83;5.83;;;9.10;99.90;;;;;;5097761;28;20492;-68
2021/11/03 00:16:55;;;;;;;6.83;5.77;;;9.10;99.90;;;;;;5105347;28;20459;-67
2021/11/03 00:19:22;;;;;;;7.40;5.77;;;9.00;99.90;;;;;;5097639;28;20466;-68
2021/11/03 00:21:49;;;;;;;9.83;6.50;;;9.00;99.90;;;;;;5097197;28;20493;-67
2021/11/03 00:24:15;;;;;;;7.40;6.23;;;9.00;99.90;;;;;;5097525;28;20461;-67
2021/11/03 00:26:42;;;;;;;8.87;6.40;;;8.90;99.90;;;;;;5097503;28;20924;-67
2021/11/03 00:29:10;;;;;;;9.97;5.60;;;8.90;99.90;;;;;;5097456;28;20817;-69
2021/11/03 00:31:37;;;;;;;7.50;6.30;;;8.90;99.90;;;;;;5097337;28;20492;-67
2021/11/03 00:34:04;;;;;;;7.33;6.23;;;8.90;99.90;;;;;;5096863;28;20906;-68
2021/11/03 00:36:31;;;;;;;7.13;5.60;;;8.90;99.90;;;;;;5097189;28;20477;-67
2021/11/03 00:38:58;;;;;;;7.67;6.87;;;8.80;99.90;;;;;;5097451;28;20538;-68
2021/11/03 00:41:24;;;;;;;7.60;5.80;;;8.80;99.90;;;;;;5097603;28;20481;-67
2021/11/03 00:43:53;;;;;;;11.23;6.00;;;8.80;99.90;;;;;;5096905;28;20465;-67
2021/11/03 00:46:21;;;;;;;9.03;6.63;;;8.80;99.90;;;;;;5097252;28;20460;-68
2021/11/03 00:48:48;;;;;;;7.30;6.60;;;8.80;99.90;;;;;;5097051;28;20471;-68
2021/11/03 00:51:14;;;;;;;8.43;6.23;;;8.80;99.90;;;;;;5096669;28;20465;-69
2021/11/03 00:53:41;;;;;;;9.03;6.73;;;8.70;99.90;;;;;;5096813;28;20466;-68
2021/11/03 00:56:08;;;;;;;8.03;6.80;;;8.70;99.90;;;;;;5096651;28;20501;-68
2021/11/03 00:58:34;;;;;;;9.10;6.90;;;8.70;99.90;;;;;;5096864;28;20442;-68
2021/11/03 01:01:01;;;;;;;8.60;7.70;;;8.60;99.90;;;;;;5096661;28;20534;-68
2021/11/03 01:03:29;;;;;;;9.57;7.47;;;8.60;99.90;;;;;;5096650;28;20928;-68
2021/11/03 01:05:56;;;;;;;8.10;7.27;;;8.50;99.90;;;;;;5096298;28;20465;-68
2021/11/03 01:08:23;;;;;;;9.90;7.60;;;8.50;99.90;;;;;;5096077;28;20919;-69
2021/11/03 01:10:53;;;;;;;10.33;7.30;;;8.40;99.90;;;;;;5096522;28;20458;-69
2021/11/03 01:13:21;;;;;;;11.83;7.37;;;8.40;99.90;;;;;;5096596;28;20464;-68
2021/11/03 01:15:48;;;;;;;9.10;7.63;;;8.30;99.90;;;;;;5095834;28;20543;-69
2021/11/03 01:18:15;;;;;;;9.03;7.83;;;8.30;99.90;;;;;;5096307;28;20480;-69
2021/11/03 01:20:44;;;;;;;8.37;6.30;;;8.20;99.90;;;;;;5096137;28;20925;-67
2021/11/03 01:23:11;;;;;;;9.17;7.47;;;8.20;99.90;;;;;;5096046;28;20552;-67
2021/11/03 01:25:39;;;;;;;10.90;7.27;;;8.10;99.90;;;;;;5096362;28;20465;-67
2021/11/03 01:28:06;;;;;;;9.23;7.17;;;8.20;99.90;;;;;;5095781;28;20793;-67
2021/11/03 01:30:33;;;;;;;7.40;6.63;;;8.20;99.90;;;;;;5096973;28;20464;-68
2021/11/03 01:33:00;;;;;;;13.80;7.70;;;8.10;99.90;;;;;;5095840;28;20936;-68
2021/11/03 01:35:27;;;;;;;8.63;7.73;;;8.10;99.90;;;;;;5095860;28;20453;-68
2021/11/03 01:37:56;;;;;;;12.33;8.40;;;8.10;99.90;;;;;;5096078;28;20464;-68
2021/11/03 01:40:25;;;;;;;12.13;8.70;;;8.00;99.90;;;;;;5095810;28;20464;-69
2021/11/03 01:42:53;;;;;;;9.30;7.73;;;8.00;99.90;;;;;;5095755;28;20474;-68
2021/11/03 01:45:23;;;;;;;8.93;7.07;;;8.00;99.90;;;;;;5095761;28;20457;-68
2021/11/03 01:47:53;;;;;;;8.67;7.53;;;8.00;99.90;;;;;;5095782;28;20474;-68
2021/11/03 01:50:33;;;;;;;8.90;8.00;;;7.90;99.90;;;;;;5095757;28;20462;-68
2021/11/03 01:53:07;;;;;;;12.70;9.03;;;8.00;99.90;;;;;;5095502;28;20437;-68
2021/11/03 01:55:35;;;;;;;10.60;7.50;;;8.00;99.90;;;;;;5095743;28;20862;-68
2021/11/03 01:58:07;;;;;;;12.30;9.07;;;8.00;99.90;;;;;;5094968;28;20489;-68
2021/11/03 02:00:38;;;;;;;12.90;8.37;;;7.90;99.90;;;;;;5095906;28;20441;-68
2021/11/03 02:03:15;;;;;;;11.30;9.03;;;7.90;99.90;;;;;;5094582;28;20481;-68
2021/11/03 02:05:44;;;;;;;13.53;8.57;;;7.90;99.90;;;;;;5095279;28;20820;-68
2021/11/03 02:08:12;;;;;;;10.43;8.70;;;7.90;99.90;;;;;;5095560;28;20460;-68
2021/11/03 02:10:39;;;;;;;13.73;8.87;;;7.80;99.90;;;;;;5095350;28;20517;-68
2021/11/03 02:13:10;;;;;;;12.67;9.07;;;7.80;99.90;;;;;;5095144;28;20456;-68
2021/11/03 02:15:37;;;;;;;11.60;8.33;;;7.70;99.90;;;;;;5095238;28;20440;-68
2021/11/03 02:18:05;;;;;;;11.10;8.40;;;7.70;99.90;;;;;;5094883;28;20913;-68
2021/11/03 02:20:33;;;;;;;15.33;8.80;;;7.70;99.90;;;;;;5095341;28;20468;-68
2021/11/03 02:23:13;;;;;;;13.10;9.17;;;7.70;99.90;;;;;;5094960;28;20485;-68
2021/11/03 02:25:45;;;;;;;11.07;9.00;;;7.60;99.90;;;;;;5095163;28;20445;-68
2021/11/03 02:28:12;;;;;;;11.10;9.53;;;7.50;99.90;;;;;;5095221;28;20759;-68
2021/11/03 02:30:39;;;;;;;11.33;9.33;;;7.50;99.90;;;;;;5094846;28;20461;-68
2021/11/03 02:33:10;;;;;;;13.83;10.17;;;7.40;99.90;;;;;;5094540;28;20954;-68
2021/11/03 02:35:37;;;;;;;12.43;9.90;;;7.30;99.90;;;;;;5095173;28;20498;-68
2021/11/03 02:38:06;;;;;;;13.63;10.13;;;7.30;99.90;;;;;;5095109;28;20457;-68
2021/11/03 02:40:43;;;;;;;10.73;9.03;;;7.30;99.90;;;;;;5094511;28;20449;-68
2021/11/03 02:43:15;;;;;;;12.40;9.93;;;7.30;99.90;;;;;;5094779;28;20464;-68
2021/11/03 02:45:47;;;;;;;11.27;9.43;;;7.30;99.90;;;;;;5095099;28;20460;-68
2021/11/03 02:48:14;;;;;;;13.90;10.40;;;7.30;99.90;;;;;;5094468;28;20456;-68
2021/11/03 02:50:59;;;;;;;14.00;10.30;;;7.30;99.90;;;;;;5094805;28;20939;-68
2021/11/03 02:53:26;;;;;;;10.87;9.67;;;7.40;99.90;;;;;;5095254;28;20884;-68
2021/11/03 02:55:54;;;;;;;11.83;10.53;;;7.30;99.90;;;;;;5094927;28;20762;-68
2021/11/03 02:58:21;;;;;;;13.57;10.23;;;7.30;99.90;;;;;;5095818;28;20503;-68
2021/11/03 03:00:50;;;;;;;13.47;10.30;;;7.30;99.90;;;;;;5095295;28;20476;-68
2021/11/03 03:03:17;;;;;;;14.20;10.70;;;7.30;99.90;;;;;;5094758;28;20484;-69
2021/11/03 03:05:50;;;;;;;12.60;10.20;;;7.30;99.90;;;;;;5095376;28;20803;-68
2021/11/03 03:08:16;;;;;;;11.43;10.20;;;7.30;99.90;;;;;;5094721;28;20510;-69
2021/11/03 03:10:43;;;;;;;12.73;10.40;;;7.30;99.90;;;;;;5094622;28;20461;-69
2021/11/03 03:13:11;;;;;;;14.00;9.67;;;7.30;99.90;;;;;;5095996;28;20483;-68
2021/11/03 03:15:38;;;;;;;10.40;9.10;;;7.30;99.90;;;;;;5098488;28;20464;-69
2021/11/03 03:18:04;;;;;;;12.93;8.67;;;7.30;99.90;;;;;;5098768;28;20521;-68
2021/11/03 03:20:31;;;;;;;13.17;9.53;;;7.30;99.90;;;;;;5098969;28;20467;-68
2021/11/03 03:22:58;;;;;;;13.10;9.40;;;7.30;99.90;;;;;;5098370;28;20806;-74
2021/11/03 03:25:30;;;;;;;10.17;9.00;;;7.20;99.90;;;;;;5098272;28;20552;-68
2021/11/03 03:27:57;;;;;;;10.50;8.77;;;7.20;99.90;;;;;;5098201;28;20456;-68
2021/11/03 03:30:25;;;;;;;10.63;9.07;;;7.20;99.90;;;;;;5098364;28;20460;-68
2021/11/03 03:32:52;;;;;;;11.00;9.30;;;7.20;99.90;;;;;;5098823;28;20460;-68
2021/11/03 03:35:19;;;;;;;9.57;8.60;;;7.20;99.90;;;;;;5098299;28;20472;-68
2021/11/03 03:37:47;;;;;;;11.00;8.73;;;7.20;99.90;;;;;;5098218;28;20464;-68
2021/11/03 03:40:14;;;;;;;10.77;9.20;;;7.20;99.90;;;;;;5097989;28;20967;-68
2021/11/03 03:42:40;;;;;;;11.90;8.60;;;7.10;99.90;;;;;;5098255;28;20494;-68
2021/11/03 03:45:08;;;;;;;10.90;9.80;;;7.00;99.90;;;;;;5098007;28;20831;-68
2021/11/03 03:47:37;;;;;;;11.50;9.23;;;7.00;99.90;;;;;;5098217;28;20457;-68
2021/11/03 03:50:04;;;;;;;10.83;9.13;;;7.00;99.90;;;;;;5097903;28;20479;-68
2021/11/03 03:52:31;;;;;;;13.70;9.53;;;6.90;99.90;;;;;;5097568;28;20908;-68
2021/11/03 03:54:58;;;;;;;9.80;8.50;;;6.80;99.90;;;;;;5098169;28;20461;-69
2021/11/03 03:57:24;;;;;;;14.20;10.33;;;6.80;99.90;;;;;;5097537;28;20540;-68
2021/11/03 03:59:51;;;;;;;13.60;8.57;;;6.70;99.90;;;;;;5098070;28;20516;-68
2021/11/03 04:02:19;;;;;;;12.37;10.07;;;6.70;99.90;;;;;;5097762;28;20506;-68
2021/11/03 04:04:47;;;;;;;11.70;9.63;;;6.70;99.90;;;;;;5098127;28;20460;-68
2021/11/03 04:07:15;;;;;;;14.93;13.27;;;6.60;99.90;;;;;;5097732;28;20460;-68
2021/11/03 04:09:42;;;;;;;14.33;12.00;;;6.50;99.90;;;;;;5097314;28;20471;-69
2021/11/03 04:12:10;;;;;;;18.60;12.30;;;6.50;99.90;;;;;;5098098;28;20460;-68
2021/11/03 04:14:36;;;;;;;14.20;11.00;;;6.40;99.90;;;;;;5097779;28;20493;-68
2021/11/03 04:17:03;;;;;;;14.33;10.77;;;6.50;99.90;;;;;;5097386;28;20824;-68
2021/11/03 04:19:30;;;;;;;17.63;11.67;;;6.40;99.90;;;;;;5097590;28;20906;-68
2021/11/03 04:21:58;;;;;;;16.23;12.70;;;6.40;99.90;;;;;;5097423;28;20463;-68
2021/11/03 04:24:25;;;;;;;16.10;12.23;;;6.40;99.90;;;;;;5097063;28;20460;-68
2021/11/03 04:26:52;;;;;;;14.80;12.67;;;6.40;99.90;;;;;;5097518;28;20794;-68
2021/11/03 04:29:21;;;;;;;14.83;12.50;;;6.40;99.90;;;;;;5097458;28;20477;-68
2021/11/03 04:31:47;;;;;;;14.43;11.93;;;6.40;99.90;;;;;;5097352;28;20455;-68
2021/11/03 04:34:14;;;;;;;16.33;11.57;;;6.40;99.90;;;;;;5097059;28;20523;-68
2021/11/03 04:36:41;;;;;;;16.53;12.20;;;6.40;99.90;;;;;;5097220;28;20791;-68
2021/11/03 04:39:10;;;;;;;14.70;12.50;;;6.40;99.90;;;;;;5097337;28;20809;-68
2021/11/03 04:41:37;;;;;;;15.93;12.20;;;6.40;99.90;;;;;;5097076;28;20524;-68
2021/11/03 04:44:05;;;;;;;15.43;11.70;;;6.40;99.90;;;;;;5096868;28;20478;-68
2021/11/03 04:46:31;;;;;;;14.90;11.60;;;6.40;99.90;;;;;;5097332;28;20462;-68
2021/11/03 04:48:58;;;;;;;19.47;11.97;;;6.40;99.90;;;;;;5097058;28;20490;-68
2021/11/03 04:51:25;;;;;;;16.13;12.30;;;6.30;99.90;;;;;;5096892;28;20759;-68
2021/11/03 04:53:52;;;;;;;20.43;11.60;;;6.30;99.90;;;;;;5096911;28;20647;-68
2021/11/03 04:56:24;;;;;;;24.57;13.07;;;6.30;99.90;;;;;;5096562;28;20484;-69
2021/11/03 04:58:52;;;;;;;19.57;12.20;;;6.30;99.90;;;;;;5096378;28;20810;-68
2021/11/03 05:01:20;;;;;;;15.63;11.43;;;6.20;99.90;;;;;;5096845;28;20461;-68
2021/11/03 05:03:47;;;;;;;17.40;12.07;;;6.20;99.90;;;;;;5096289;28;20495;-68
2021/11/03 05:06:17;;;;;;;14.40;11.40;;;6.20;99.90;;;;;;5096137;28;20902;-68
2021/11/03 05:08:44;;;;;;;15.50;12.90;;;6.20;99.90;;;;;;5096589;28;20790;-69
2021/11/03 05:11:10;;;;;;;17.13;11.87;;;6.20;99.90;;;;;;5096651;28;20456;-68
2021/11/03 05:13:38;;;;;;;17.67;12.50;;;6.20;99.90;;;;;;5096097;28;20461;-68
2021/11/03 05:16:06;;;;;;;16.13;12.03;;;6.30;99.90;;;;;;5096532;28;20460;-69
2021/11/03 05:18:33;;;;;;;17.00;12.77;;;6.30;99.90;;;;;;5095761;28;20457;-68
2021/11/03 05:20:59;;;;;;;18.73;12.77;;;6.30;99.90;;;;;;5096404;28;20537;-68
2021/11/03 05:23:26;;;;;;;17.07;12.07;;;6.30;99.90;;;;;;5096010;28;20491;-68
2021/11/03 05:25:53;;;;;;;18.20;12.43;;;6.40;99.90;;;;;;5096180;28;20873;-68
2021/11/03 05:28:20;;;;;;;15.87;12.60;;;6.30;99.90;;;;;;5096609;28;20459;-69
2021/11/03 05:30:49;;;;;;;14.47;12.00;;;6.30;99.90;;;;;;5095722;28;20888;-68
2021/11/03 05:33:16;;;;;;;17.33;12.80;;;6.40;99.90;;;;;;5095985;28;20458;-68
2021/11/03 05:35:43;;;;;;;14.77;12.00;;;6.30;99.90;;;;;;5095967;28;20471;-68
2021/11/03 05:38:10;;;;;;;21.00;12.30;;;6.30;99.90;;;;;;5095282;28;20558;-69
2021/11/03 05:40:38;;;;;;;27.97;14.80;;;6.30;99.90;;;;;;5096050;28;20452;-69
2021/11/03 05:43:04;;;;;;;16.33;13.40;;;6.30;99.90;;;;;;5096066;28;20540;-69
2021/11/03 05:45:31;;;;;;;16.83;12.40;;;6.30;99.90;;;;;;5095493;28;20539;-68
2021/11/03 05:47:59;;;;;;;17.50;12.60;;;6.20;99.90;;;;;;5095736;28;20795;-68
2021/11/03 05:50:28;;;;;;;16.20;12.40;;;6.30;99.90;;;;;;5095724;28;20785;-68
2021/11/03 05:52:55;;;;;;;19.83;12.77;;;6.30;99.90;;;;;;5095587;28;20468;-68
2021/11/03 05:55:22;;;;;;;17.40;12.83;;;6.30;99.90;;;;;;5095656;28;20459;-68
2021/11/03 05:57:50;;;;;;;108.53;66.60;;;6.20;99.90;;;;;;5095131;28;20565;-68
2021/11/03 06:00:21;;;;;;;19.17;15.10;;;6.30;99.90;;;;;;5095476;28;20525;-68
2021/11/03 06:02:48;;;;;;;16.23;11.80;;;6.30;99.90;;;;;;5095723;28;20467;-67
2021/11/03 06:05:17;;;;;;;15.83;11.93;;;6.30;99.90;;;;;;5096027;28;20470;-68
2021/11/03 06:07:49;;;;;;;18.83;12.37;;;6.30;99.90;;;;;;5095295;28;20489;-68
2021/11/03 06:10:20;;;;;;;18.90;12.23;;;6.30;99.90;;;;;;5095604;28;20560;-68
2021/11/03 06:12:47;;;;;;;14.60;12.20;;;6.30;99.90;;;;;;5095417;28;20778;-68
2021/11/03 06:15:13;;;;;;;15.70;11.83;;;6.30;99.90;;;;;;5095194;28;20783;-68
2021/11/03 06:17:40;;;;;;;17.20;11.93;;;6.30;99.90;;;;;;5095643;28;20538;-68
2021/11/03 06:20:08;;;;;;;16.60;12.73;;;6.30;99.90;;;;;;5095370;28;20463;-68
2021/11/03 06:22:37;;;;;;;19.90;14.00;;;6.30;99.90;;;;;;5095106;28;20451;-68
2021/11/03 06:25:04;;;;;;;18.57;12.63;;;6.30;99.90;;;;;;5095881;28;20765;-69
2021/11/03 06:27:31;;;;;;;18.57;13.00;;;6.30;99.90;;;;;;5095360;28;20498;-69
2021/11/03 06:29:57;;;;;;;20.63;14.07;;;6.30;99.90;;;;;;5095131;28;20460;-68
2021/11/03 06:32:24;;;;;;;19.03;13.40;;;6.30;99.90;;;;;;5095071;28;20455;-68
2021/11/03 06:34:51;;;;;;;20.30;13.97;;;6.30;99.90;;;;;;5095169;28;20466;-67
2021/11/03 06:37:17;;;;;;;17.70;13.60;;;6.40;99.90;;;;;;5094820;28;20517;-67
2021/11/03 06:39:45;;;;;;;21.00;13.70;;;6.40;99.90;;;;;;5095144;28;20479;-69
2021/11/03 06:42:12;;;;;;;19.30;13.03;;;6.40;99.90;;;;;;5094877;28;20869;-69
2021/11/03 06:44:39;;;;;;;20.10;13.83;;;6.40;99.90;;;;;;5095096;28;20492;-68
2021/11/03 06:47:06;;;;;;;17.73;13.90;;;6.40;99.90;;;;;;5094489;28;20467;-68
2021/11/03 06:49:33;;;;;;;22.10;16.70;;;6.40;99.90;;;;;;5094461;28;20468;-68
2021/11/03 06:51:59;;;;;;;21.80;15.70;;;6.50;99.90;;;;;;5094111;28;20459;-68
2021/11/03 06:54:26;;;;;;;18.33;13.20;;;6.40;99.90;;;;;;5094774;28;20468;-69
2021/11/03 06:56:54;;;;;;;18.83;14.50;;;6.50;99.90;;;;;;5093984;28;20496;-68
2021/11/03 06:59:22;;;;;;;19.23;14.30;;;6.40;99.90;;;;;;5094478;28;20446;-68
2021/11/03 07:01:49;;;;;;;16.47;12.97;;;6.40;99.90;;;;;;5094698;28;20535;-68
2021/11/03 07:04:16;;;;;;;18.33;14.20;;;6.50;99.90;;;;;;5094843;28;20478;-68
2021/11/03 07:06:43;;;;;;;18.10;13.80;;;6.50;99.90;;;;;;5094413;28;20459;-67
2021/11/03 07:09:10;;;;;;;26.63;15.80;;;6.50;99.90;;;;;;5094536;28;20458;-67
2021/11/03 07:11:37;;;;;;;17.80;14.20;;;6.40;99.90;;;;;;5094879;28;20455;-68
2021/11/03 07:14:06;;;;;;;19.10;14.40;;;6.50;99.90;;;;;;5094659;28;20500;-68
2021/11/03 07:16:33;;;;;;;17.67;13.00;;;6.50;99.90;;;;;;5097199;28;20470;-68
2021/11/03 07:19:00;;;;;;;17.40;14.07;;;6.50;99.90;;;;;;5097465;28;20868;-68
2021/11/03 07:21:26;;;;;;;23.10;12.90;;;6.50;99.90;;;;;;5096496;28;20832;-68
2021/11/03 07:23:53;;;;;;;17.73;13.73;;;6.60;99.90;;;;;;5095908;28;20872;-68
2021/11/03 07:26:20;;;;;;;16.30;13.83;;;6.70;99.90;;;;;;5095704;28;20467;-68
2021/11/03 07:28:47;;;;;;;16.30;12.03;;;6.70;99.90;;;;;;5096337;28;20461;-68
2021/11/03 07:31:15;;;;;;;17.10;12.47;;;6.70;99.90;;;;;;5097164;28;20536;-69
2021/11/03 07:33:42;;;;;;;15.37;11.83;;;6.80;99.90;;;;;;5094668;28;20838;-69
2021/11/03 07:36:11;;;;;;;14.40;10.13;;;6.90;99.90;;;;;;5095052;28;20461;-69
2021/11/03 07:38:37;;;;;;;15.17;11.17;;;7.00;99.90;;;;;;5093932;28;20786;-68
2021/11/03 07:41:04;;;;;;;18.77;11.57;;;7.00;99.90;;;;;;5094238;28;20474;-68
2021/11/03 07:43:34;;;;;;;16.23;11.90;;;7.10;99.90;;;;;;5094186;28;20507;-68
2021/11/03 07:46:02;;;;;;;19.27;11.27;;;7.10;99.90;;;;;;5093734;28;20456;-68
2021/11/03 07:48:31;;;;;;;13.40;10.70;;;7.10;99.90;;;;;;5094155;28;20540;-69
2021/11/03 07:51:00;;;;;;;17.23;12.20;;;7.10;99.90;;;;;;5094394;28;20575;-69
2021/11/03 07:53:28;;;;;;;16.10;11.23;;;7.20;99.90;;;;;;5093804;28;20457;-69
2021/11/03 07:55:58;;;;;;;14.37;11.80;;;7.30;99.90;;;;;;5093920;28;20460;-67
2021/11/03 07:58:29;;;;;;;15.87;11.33;;;7.40;99.90;;;;;;5096257;28;20517;-69
2021/11/03 08:00:57;;;;;;;14.10;10.60;;;7.40;99.90;;;;;;5097382;28;20449;-70
2021/11/03 08:03:26;;;;;;;19.30;11.53;;;7.50;99.90;;;;;;5097850;28;20494;-69
2021/11/03 08:05:55;;;;;;;13.00;10.70;;;7.50;99.90;;;;;;5098432;28;20464;-70
2021/11/03 08:08:27;;;;;;;16.17;12.23;;;7.50;99.90;;;;;;5097885;28;20460;-69
2021/11/03 08:10:55;;;;;;;13.53;10.60;;;7.60;99.90;;;;;;5097296;28;20437;-68
2021/11/03 08:13:25;;;;;;;14.87;11.40;;;7.60;99.90;;;;;;5097412;28;20460;-70
2021/11/03 08:15:54;;;;;;;16.47;11.07;;;7.70;99.90;;;;;;5097427;28;20453;-69
2021/11/03 08:18:25;;;;;;;15.33;11.80;;;7.80;99.90;;;;;;5097707;28;20464;-70
2021/11/03 08:20:53;;;;;;;17.07;11.20;;;7.80;99.90;;;;;;5097449;28;20465;-69
2021/11/03 08:23:20;;;;;;;19.00;10.00;;;7.90;99.90;;;;;;5096891;28;20920;-68
2021/11/03 08:25:47;;;;;;;17.10;12.07;;;8.00;99.90;;;;;;5097310;28;20449;-69
2021/11/03 08:28:14;;;;;;;18.00;12.23;;;8.10;99.90;;;;;;5097326;28;20841;-70
2021/11/03 08:30:44;;;;;;;15.57;10.73;;;8.10;99.90;;;;;;5097202;28;20532;-69
2021/11/03 08:33:14;;;;;;;13.03;9.70;;;8.20;99.90;;;;;;5097255;28;20468;-70
2021/11/03 08:35:45;;;;;;;16.30;10.80;;;8.10;99.90;;;;;;5096910;28;20908;-69
2021/11/03 08:38:17;;;;;;;14.80;10.83;;;8.10;99.90;;;;;;5096960;28;20445;-69
2021/11/03 08:40:45;;;;;;;12.40;10.43;;;8.10;99.90;;;;;;5097266;28;20456;-68
2021/11/03 08:43:12;;;;;;;14.33;10.50;;;8.20;99.90;;;;;;5096995;28;20493;-67
2021/11/03 08:45:39;;;;;;;22.23;11.70;;;8.30;99.90;;;;;;5098681;28;20457;-70
2021/11/03 08:48:07;;;;;;;14.50;9.90;;;8.30;99.90;;;;;;5099300;28;20464;-70
2021/11/03 08:50:37;;;;;;;12.43;9.90;;;8.40;99.90;;;;;;5099241;28;20450;-69
2021/11/03 08:53:07;;;;;;;12.50;10.03;;;8.50;99.90;;;;;;5098609;28;20932;-69
2021/11/03 08:55:35;;;;;;;12.70;9.10;;;8.60;99.90;;;;;;5096869;28;20453;-68
2021/11/03 08:58:05;;;;;;;13.47;10.13;;;8.70;99.90;;;;;;5096114;28;20489;-68
2021/11/03 09:00:36;;;;;;;14.83;10.83;;;8.80;99.90;;;;;;5096626;28;20567;-68
2021/11/03 09:03:04;;;;;;;16.67;9.90;;;8.80;99.90;;;;;;5096454;28;20450;-68
2021/11/03 09:05:32;;;;;;;12.20;9.10;;;8.90;99.90;;;;;;5096730;28;20962;-69
2021/11/03 09:08:00;;;;;;;12.60;9.93;;;8.90;99.90;;;;;;5096261;28;20747;-68
2021/11/03 09:10:34;;;;;;;13.73;9.50;;;8.90;99.90;;;;;;5096110;28;20491;-69
2021/11/03 09:13:03;;;;;;;14.90;10.00;;;9.00;99.90;;;;;;5095731;28;20438;-68
2021/11/03 09:15:29;;;;;;;13.77;10.33;;;9.10;99.90;;;;;;5096447;28;20506;-68
2021/11/03 09:17:56;;;;;;;14.13;10.10;;;9.20;99.90;;;;;;5096379;28;20573;-68
2021/11/03 09:20:25;;;;;;;12.40;9.47;;;9.30;99.90;;;;;;5096167;28;20460;-69
2021/11/03 09:22:52;;;;;;;16.13;9.33;;;9.40;99.90;;;;;;5096314;28;20460;-69
2021/11/03 09:25:22;;;;;;;14.37;9.90;;;9.50;99.90;;;;;;5095965;28;20493;-68
2021/11/03 09:27:49;;;;;;;12.70;9.83;;;9.60;99.90;;;;;;5096202;28;20457;-68
2021/11/03 09:30:21;;;;;;;13.30;10.40;;;9.70;99.90;;;;;;5095818;28;20919;-69
2021/11/03 09:32:53;;;;;;;9.50;8.27;;;9.80;99.90;;;;;;5095971;28;20451;-68
2021/11/03 09:35:21;;;;;;;12.63;10.33;;;10.00;99.90;;;;;;5095547;28;20434;-67
2021/11/03 09:37:48;;;;;;;12.30;9.30;;;10.10;99.90;;;;;;5095445;28;20463;-69
2021/11/03 09:40:23;;;;;;;12.20;9.57;;;10.20;99.90;;;;;;5095705;28;20456;-67
2021/11/03 09:42:50;;;;;;;11.20;9.00;;;10.30;99.90;;;;;;5095608;28;20468;-68
2021/11/03 09:45:20;;;;;;;16.10;9.53;;;10.30;99.90;;;;;;5095338;28;20972;-67
2021/11/03 09:48:00;;;;;;;13.00;9.53;;;10.40;99.90;;;;;;5095356;28;20888;-69
2021/11/03 09:50:27;;;;;;;10.43;8.33;;;10.50;99.90;;;;;;5096135;28;20442;-68
2021/11/03 09:52:58;;;;;;;13.80;8.70;;;10.60;99.90;;;;;;5095383;28;20476;-69
2021/11/03 09:55:29;;;;;;;12.87;9.10;;;10.70;99.90;;;;;;5095424;28;20445;-68
2021/11/03 09:58:05;;;;;;;10.80;8.30;;;10.80;99.90;;;;;;5095026;28;20484;-68
2021/11/03 10:00:41;;;;;;;13.20;8.60;;;10.90;99.90;;;;;;5094568;28;20540;-68
2021/11/03 10:03:25;;;;;;;9.47;8.03;;;11.00;99.90;;;;;;5095386;28;20820;-69
2021/11/03 10:05:59;;;;;;;11.13;7.80;;;11.10;99.90;;;;;;5095099;28;20461;-68
2021/11/03 10:08:29;;;;;;;12.43;7.90;;;11.20;99.90;;;;;;5095604;28;20771;-69
2021/11/03 10:10:59;;;;;;;14.43;9.33;;;11.30;99.90;;;;;;5095316;28;20454;-68
2021/11/03 10:13:28;;;;;;;17.47;10.00;;;11.30;99.90;;;;;;5095779;28;20450;-68
2021/11/03 10:16:00;;;;;;;10.93;8.70;;;11.30;99.90;;;;;;5094878;28;20463;-68
2021/11/03 10:18:29;;;;;;;10.30;8.50;;;11.30;99.90;;;;;;5095153;28;20442;-68
2021/11/03 10:21:13;;;;;;;15.10;9.93;;;11.30;99.90;;;;;;5094813;28;20466;-69
2021/11/03 10:23:40;;;;;;;18.50;8.63;;;11.20;99.90;;;;;;5094726;28;20442;-68
2021/11/03 10:26:11;;;;;;;13.40;9.23;;;11.20;99.90;;;;;;5094864;28;20925;-69
2021/11/03 10:28:42;;;;;;;12.73;9.20;;;11.20;99.90;;;;;;5094785;28;20453;-68
2021/11/03 10:31:25;;;;;;;10.87;9.03;;;11.20;99.90;;;;;;5094976;28;20538;-68
2021/11/03 10:34:00;;;;;;;11.37;9.17;;;11.30;99.90;;;;;;5095130;28;20453;-67
2021/11/03 10:36:37;;;;;;;17.07;11.20;;;11.30;99.90;;;;;;5095057;28;20747;-67
2021/11/03 10:39:12;;;;;;;10.57;8.53;;;11.30;99.90;;;;;;5094925;28;20445;-68
2021/11/03 10:41:39;;;;;;;12.63;9.67;;;11.30;99.90;;;;;;5094769;28;20543;-69
2021/11/03 10:44:17;;;;;;;10.80;8.40;;;11.30;99.90;;;;;;5094612;28;20816;-68
2021/11/03 10:46:53;;;;;;;12.57;9.20;;;11.20;99.90;;;;;;5094461;28;20450;-68
2021/11/03 10:49:31;;;;;;;10.87;8.93;;;11.20;99.90;;;;;;5094983;28;20458;-68
2021/11/03 10:52:13;;;;;;;9.60;7.60;;;11.20;99.90;;;;;;5093024;28;20470;-68
2021/11/03 10:54:46;;;;;;;10.17;8.07;;;11.20;99.90;;;;;;5094248;28;20436;-68
2021/11/03 10:57:25;;;;;;;8.97;7.83;;;11.30;99.90;;;;;;5094091;28;20493;-68
2021/11/03 10:59:58;;;;;;;10.80;8.10;;;11.60;99.90;;;;;;5094838;28;20442;-68
2021/11/03 11:02:31;;;;;;;10.10;7.93;;;11.80;99.90;;;;;;5093769;28;20547;-67
2021/11/03 11:05:03;;;;;;;8.83;7.93;;;12.00;99.90;;;;;;5094236;28;20524;-68
2021/11/03 11:07:34;;;;;;;11.30;7.33;;;12.10;99.90;;;;;;5095513;28;20451;-68
2021/11/03 11:10:07;;;;;;;8.63;7.30;;;12.10;99.90;;;;;;5095578;28;20455;-68
2021/11/03 11:12:39;;;;;;;9.43;8.37;;;12.20;99.90;;;;;;5096473;28;20471;-68
2021/11/03 11:15:19;;;;;;;8.67;7.73;;;12.20;99.90;;;;;;5096109;28;20455;-68
2021/11/03 11:17:52;;;;;;;9.10;8.20;;;12.30;99.90;;;;;;5096190;28;20452;-68
2021/11/03 11:20:26;;;;;;;8.87;7.90;;;12.40;99.90;;;;;;5096574;28;20442;-68
2021/11/03 11:23:05;;;;;;;8.50;7.60;;;12.30;99.90;;;;;;5098059;28;20485;-68
2021/11/03 11:25:40;;;;;;;8.33;7.43;;;12.40;99.90;;;;;;5097951;28;20498;-67
2021/11/03 11:28:30;;;;;;;10.00;8.73;;;12.50;99.90;;;;;;5099692;28;20445;-67
2021/11/03 11:31:02;;;;;;;12.07;9.67;;;12.60;99.90;;;;;;5092344;28;20946;-67
2021/11/03 11:33:32;;;;;;;10.70;8.53;;;12.70;99.90;;;;;;5098869;28;20445;-67
2021/11/03 11:36:23;;;;;;;8.53;7.17;;;12.90;99.90;;;;;;5098664;28;20448;-68
2021/11/03 11:39:01;;;;;;;7.10;5.93;;;13.10;99.90;;;;;;5093663;28;20487;-68
2021/11/03 11:41:32;;;;;;;8.70;7.43;;;13.10;99.90;;;;;;5098085;28;20456;-69
2021/11/03 11:44:05;;;;;;;7.73;6.93;;;13.20;99.90;;;;;;5098008;28;20548;-68
2021/11/03 11:46:33;;;;;;;8.13;7.10;;;13.20;99.90;;;;;;5098107;28;20501;-68
2021/11/03 11:49:22;;;;;;;8.63;6.87;;;13.30;99.90;;;;;;5098200;28;20461;-70
2021/11/03 11:51:51;;;;;;;9.77;7.50;;;13.50;99.90;;;;;;5098405;28;20951;-67
2021/11/03 11:54:25;;;;;;;8.33;6.90;;;13.60;99.90;;;;;;5101337;28;20777;-67
2021/11/03 11:57:22;;;;;;;8.60;7.20;;;13.80;99.90;;;;;;5102590;28;20476;-68
2021/11/03 12:00:18;;;;;;;9.70;7.30;;;14.20;99.90;;;;;;5098635;28;20578;-68
2021/11/03 12:03:01;;;;;;;7.17;6.33;;;14.60;99.90;;;;;;5099387;28;20465;-69
2021/11/03 12:05:45;;;;;;;7.30;6.43;;;15.80;99.90;;;;;;5099005;28;20465;-68
2021/11/03 12:08:21;;;;;;;7.53;5.97;;;17.60;99.90;;;;;;5099365;28;20456;-68
2021/11/03 12:11:15;;;;;;;5.83;5.13;;;19.60;99.90;;;;;;5107169;28;20503;-68
2021/11/03 12:14:22;;;;;;;6.73;4.50;;;21.50;99.00;;;;;;5107005;28;20438;-67
2021/11/03 12:17:10;;;;;;;3.90;3.60;;;23.00;15.90;;;;;;5098236;28;20444;-67
2021/11/03 12:19:54;;;;;;;4.73;4.33;;;24.40;1.00;;;;;;5098132;28;20886;-67
2021/11/03 12:22:49;;;;;;;4.13;3.80;;;25.70;1.00;;;;;;5097133;28;20933;-68
2021/11/03 12:25:40;;;;;;;4.90;3.93;;;26.50;1.00;;;;;;5097506;28;20512;-67
2021/11/03 12:28:45;;;;;;;4.67;4.30;;;27.20;1.00;;;;;;5092348;28;20740;-68
2021/11/03 12:31:24;;;;;;;7.00;5.27;;;27.70;1.00;;;;;;5066257;28;20450;-67
2021/11/03 12:34:35;;;;;;;4.70;4.03;;;28.00;1.00;;;;;;5096937;28;20471;-67
2021/11/03 12:37:28;;;;;;;3.87;3.57;;;28.30;1.00;;;;;;5062086;28;20468;-68
2021/11/03 12:40:30;;;;;;;3.83;3.53;;;28.20;1.00;;;;;;5096861;28;20545;-67
2021/11/03 12:43:19;;;;;;;5.67;3.03;;;27.40;1.00;;;;;;5096760;28;20492;-67
2021/11/03 12:46:02;;;;;;;5.47;3.90;;;26.20;1.00;;;;;;5096625;28;20466;-68
2021/11/03 12:48:35;;;;;;;5.23;4.83;;;24.90;1.00;;;;;;5098119;28;20453;-68
2021/11/03 12:51:12;;;;;;;4.27;3.87;;;24.80;1.00;;;;;;5096594;28;20438;-67
2021/11/03 12:53:47;;;;;;;3.93;3.63;;;25.40;1.00;;;;;;5096507;28;20438;-67
2021/11/03 12:56:20;;;;;;;3.40;3.10;;;26.30;1.00;;;;;;5096737;28;20489;-68
2021/11/03 12:58:48;;;;;;;4.47;3.80;;;27.00;1.00;;;;;;5096379;28;20446;-67
2021/11/03 13:01:20;;;;;;;4.43;3.10;;;27.60;1.00;;;;;;5096238;28;20458;-67